Arethusa — 9HJR9 — position and weather

sailwx.info

Track history (hours):
 
Tides and Currents Weather Stations Pressure Air Temp Water Temp Dewpoint Dewpoint Depression Visibility Wind Speed Wind Dir Waves Ship Positions

Arethusa

Last reported at 2016-Nov-24 13:30 UTC. Time now 2016-Dec-07 16:24 UTC.
Position N 35°56' E 014°34'.
Warning: this ship's position is 13 days out of date.

Length 60 m; draft 3 m.

Type: Passenger vessel. MMSI: 249069000.

Date/timePositionNaut miles runAvg speedWind from/ knotsBaromVisibWave heightAir tempDewpointWater temp
2016-Nov-24 13:30N 35°56' E 014°34'  
2016-Nov-22 05:33N 35°58' E 014°35'124 4.9
2016-Nov-21 04:26N 37°55' E 015°25'7 3.8
2016-Nov-21 02:33N 38°00' E 015°32'1 0.6
2016-Nov-21 00:33N 37°59' E 015°31'5 2.6
2016-Nov-20 22:33N 38°04' E 015°33'7 6.6
2016-Nov-20 21:33N 38°10' E 015°35'22 5.4
2016-Nov-20 17:33N 38°25' E 015°15'9 8.6
2016-Nov-20 16:32N 38°27' E 015°04'5 2.3
2016-Nov-20 14:27N 38°28' E 014°58'0 0.0
2016-Nov-20 13:31N 38°28' E 014°58'0 0.0
2016-Nov-20 12:28N 38°28' E 014°58'0 0.0
2016-Nov-20 09:19N 38°28' E 014°58'0 0.0
2016-Nov-20 08:07N 38°28' E 014°58'0 0.0
2016-Nov-20 07:25N 38°28' E 014°58'3 2.4
2016-Nov-20 06:17N 38°28' E 015°01'2 2.2
2016-Nov-20 05:30N 38°28' E 015°03'0 0.4
2016-Nov-20 04:22N 38°28' E 015°04'1 0.8
2016-Nov-20 03:30N 38°29' E 015°03'20 3.9
2016-Nov-19 22:26N 38°46' E 015°15'  
Track history (hours):
 
Tides and Currents Weather Stations Pressure Air Temp Water Temp Dewpoint Dewpoint Depression Visibility Wind Speed Wind Dir Waves Ship Positions

Arethusa

Last reported at 2016-Nov-24 13:30 UTC. Time now 2016-Dec-07 16:24 UTC.
Position N 35°56' E 014°34'.
Warning: this ship's position is 13 days out of date.

Length 60 m; draft 3 m.

Type: Passenger vessel. MMSI: 249069000.

Date/timePositionNaut miles runAvg speedWind from/ knotsBaromVisibWave heightAir tempDewpointWater temp
2016-Nov-24 13:30N 35°56' E 014°34'  
2016-Nov-22 05:33N 35°58' E 014°35'124 4.9
2016-Nov-21 04:26N 37°55' E 015°25'7 3.8
2016-Nov-21 02:33N 38°00' E 015°32'1 0.6
2016-Nov-21 00:33N 37°59' E 015°31'5 2.6
2016-Nov-20 22:33N 38°04' E 015°33'7 6.6
2016-Nov-20 21:33N 38°10' E 015°35'22 5.4
2016-Nov-20 17:33N 38°25' E 015°15'9 8.6
2016-Nov-20 16:32N 38°27' E 015°04'5 2.3
2016-Nov-20 14:27N 38°28' E 014°58'0 0.0
2016-Nov-20 13:31N 38°28' E 014°58'0 0.0
2016-Nov-20 12:28N 38°28' E 014°58'0 0.0
2016-Nov-20 09:19N 38°28' E 014°58'0 0.0
2016-Nov-20 08:07N 38°28' E 014°58'0 0.0
2016-Nov-20 07:25N 38°28' E 014°58'3 2.4
2016-Nov-20 06:17N 38°28' E 015°01'2 2.2
2016-Nov-20 05:30N 38°28' E 015°03'0 0.4
2016-Nov-20 04:22N 38°28' E 015°04'1 0.8
2016-Nov-20 03:30N 38°29' E 015°03'20 3.9
2016-Nov-19 22:26N 38°46' E 015°15'  

Dump ship's entire track history